Time;durP1;ratioP1;P1;durP2;ratioP2;P2;SDS_P1;SDS_P2;PMS_P1;PMS_P2;Temp;Humidity;BMP_temperature;BMP_pressure;BME280_temperature;BME280_humidity;BME280_pressure;Samples;Min_cycle;Max_cycle;Signal;HPM_P1;HPM_P2
2022/03/08 00:00:58;;;;;;;10.50;4.70;;;15.40;79.40;;;;;;2012538;28;20203;-74
2022/03/08 00:01:56;;;;;;;7.83;4.33;;;15.40;79.60;;;;;;2012459;28;20175;-74
2022/03/08 00:02:55;;;;;;;6.30;4.37;;;15.40;79.40;;;;;;2012413;28;20254;-75
2022/03/08 00:03:54;;;;;;;6.53;4.30;;;15.40;79.50;;;;;;2012698;28;20200;-74
2022/03/08 00:04:52;;;;;;;7.83;4.93;;;15.40;79.50;;;;;;2012518;28;20516;-75
2022/03/08 00:05:52;;;;;;;7.60;4.70;;;15.50;79.60;;;;;;2012526;28;20415;-75
2022/03/08 00:06:51;;;;;;;7.22;4.07;;;15.40;79.80;;;;;;2011795;28;20234;-74
2022/03/08 00:07:51;;;;;;;8.90;4.67;;;15.50;79.90;;;;;;2011874;28;20172;-74
2022/03/08 00:08:49;;;;;;;6.93;4.57;;;15.40;79.80;;;;;;2012466;28;20447;-75
2022/03/08 00:09:48;;;;;;;7.20;4.80;;;15.40;79.90;;;;;;2011819;28;20187;-75
2022/03/08 00:10:47;;;;;;;7.67;4.10;;;15.40;80.10;;;;;;2011925;28;20655;-75
2022/03/08 00:11:45;;;;;;;7.60;4.20;;;15.40;80.30;;;;;;2019338;28;20180;-74
2022/03/08 00:12:46;;;;;;;7.30;4.67;;;15.40;80.20;;;;;;2020029;28;20264;-74
2022/03/08 00:13:45;;;;;;;7.88;4.70;;;15.40;80.30;;;;;;2012592;28;20724;-75
2022/03/08 00:14:43;;;;;;;8.20;4.83;;;15.50;80.10;;;;;;2012265;28;20322;-75
2022/03/08 00:15:42;;;;;;;7.00;4.67;;;15.40;80.20;;;;;;2012455;28;20222;-75
2022/03/08 00:16:41;;;;;;;10.07;5.20;;;15.40;80.10;;;;;;2012580;28;20176;-75
2022/03/08 00:17:39;;;;;;;12.40;5.40;;;15.40;80.10;;;;;;2012471;28;20176;-74
2022/03/08 00:18:38;;;;;;;7.40;4.83;;;15.40;80.30;;;;;;2012639;28;20254;-74
2022/03/08 00:19:36;;;;;;;7.90;4.50;;;15.40;80.30;;;;;;2012511;28;20175;-74
2022/03/08 00:20:36;;;;;;;8.27;4.50;;;15.40;80.30;;;;;;2012710;28;20184;-74
2022/03/08 00:21:34;;;;;;;9.48;4.60;;;15.30;80.50;;;;;;2012375;28;20632;-74
2022/03/08 00:22:34;;;;;;;6.57;4.23;;;15.40;80.50;;;;;;2012285;28;20199;-74
2022/03/08 00:23:33;;;;;;;10.73;4.40;;;15.40;80.70;;;;;;2012488;28;20180;-74
2022/03/08 00:24:32;;;;;;;12.53;4.87;;;15.40;80.80;;;;;;2012467;28;20534;-74
2022/03/08 00:25:30;;;;;;;11.40;4.10;;;15.40;80.60;;;;;;2012404;28;20407;-74
2022/03/08 00:26:29;;;;;;;6.13;4.53;;;15.40;80.70;;;;;;2012267;28;20179;-74
2022/03/08 00:27:28;;;;;;;11.83;5.50;;;15.40;80.70;;;;;;2012411;28;20651;-74
2022/03/08 00:28:27;;;;;;;6.50;4.88;;;15.30;81.10;;;;;;2012414;28;20659;-74
2022/03/08 00:29:26;;;;;;;7.70;4.60;;;15.40;80.70;;;;;;2012433;28;20203;-74
2022/03/08 00:30:26;;;;;;;8.00;4.20;;;15.40;80.70;;;;;;2012497;28;20182;-74
2022/03/08 00:31:25;;;;;;;7.00;4.07;;;15.40;81.00;;;;;;2012460;28;20173;-74
2022/03/08 00:32:23;;;;;;;10.50;5.47;;;15.30;81.10;;;;;;2012339;28;20252;-74
2022/03/08 00:33:23;;;;;;;7.80;4.73;;;15.40;81.10;;;;;;2012487;28;20274;-73
2022/03/08 00:34:22;;;;;;;7.70;4.28;;;15.40;81.00;;;;;;2012502;28;20217;-74
2022/03/08 00:35:22;;;;;;;6.37;4.10;;;15.40;81.00;;;;;;2012382;28;20177;-74
2022/03/08 00:36:21;;;;;;;8.95;4.55;;;15.40;81.20;;;;;;2011828;28;20169;-73
2022/03/08 00:37:20;;;;;;;9.83;4.60;;;15.40;81.20;;;;;;2011917;28;20165;-74
2022/03/08 00:38:18;;;;;;;7.30;3.90;;;15.30;81.40;;;;;;2011478;28;20172;-74
2022/03/08 00:39:18;;;;;;;8.53;4.67;;;15.40;81.10;;;;;;2011675;28;20399;-74
2022/03/08 00:40:20;;;;;;;9.70;4.70;;;15.40;81.20;;;;;;2012251;28;20409;-74
2022/03/08 00:41:20;;;;;;;8.88;4.50;;;15.40;81.60;;;;;;2012395;28;20231;-74
2022/03/08 00:42:19;;;;;;;9.90;4.53;;;15.30;81.70;;;;;;2012669;28;20279;-74
2022/03/08 00:43:18;;;;;;;9.88;4.40;;;15.30;81.60;;;;;;2012415;28;20270;-74
2022/03/08 00:44:17;;;;;;;7.90;4.68;;;15.30;81.80;;;;;;2013218;28;20169;-74
2022/03/08 00:45:16;;;;;;;6.83;4.30;;;15.30;82.00;;;;;;2014256;28;20765;-74
2022/03/08 00:46:15;;;;;;;6.10;3.97;;;15.30;81.70;;;;;;2014845;28;20168;-74
2022/03/08 00:47:14;;;;;;;5.95;4.10;;;15.30;82.00;;;;;;2015627;28;20403;-74
2022/03/08 00:48:13;;;;;;;9.07;5.17;;;15.30;81.90;;;;;;2015704;28;20178;-74
2022/03/08 00:49:11;;;;;;;7.50;4.60;;;15.30;81.70;;;;;;2014587;28;20411;-74
2022/03/08 00:50:14;;;;;;;6.23;4.33;;;15.40;82.00;;;;;;2015223;28;20177;-74
2022/03/08 00:51:12;;;;;;;7.07;4.18;;;15.30;82.10;;;;;;2016325;28;20511;-74
2022/03/08 00:52:11;;;;;;;8.30;3.83;;;15.30;82.30;;;;;;2013895;28;20199;-74
2022/03/08 00:53:10;;;;;;;7.60;4.57;;;15.30;82.50;;;;;;2012402;28;20733;-74
2022/03/08 00:54:09;;;;;;;6.85;4.53;;;15.30;82.70;;;;;;2013762;28;20169;-74
2022/03/08 00:55:09;;;;;;;7.57;4.20;;;15.30;83.10;;;;;;2013946;28;20180;-74
2022/03/08 00:56:08;;;;;;;5.43;4.03;;;15.30;82.80;;;;;;2013941;28;20949;-74
2022/03/08 00:57:06;;;;;;;8.97;5.37;;;15.30;82.50;;;;;;2013991;28;20177;-74
2022/03/08 00:58:06;;;;;;;6.40;4.13;;;15.30;82.50;;;;;;2013972;28;20180;-74
2022/03/08 00:59:05;;;;;;;6.50;3.92;;;15.30;83.00;;;;;;2013892;28;20180;-75
2022/03/08 01:00:06;;;;;;;9.10;4.20;;;15.30;82.80;;;;;;2013241;28;20219;-74
2022/03/08 01:01:05;;;;;;;6.75;3.90;;;15.30;84.20;;;;;;2013240;28;20299;-74
2022/03/08 01:02:04;;;;;;;7.80;4.87;;;15.20;83.10;;;;;;2013875;28;20263;-74
2022/03/08 01:03:03;;;;;;;8.53;4.60;;;15.30;82.90;;;;;;2013615;28;20200;-74
2022/03/08 01:04:01;;;;;;;7.67;4.13;;;15.30;83.50;;;;;;2013940;28;20411;-74
2022/03/08 01:05:00;;;;;;;6.20;4.00;;;15.30;83.60;;;;;;2014053;28;20411;-74
2022/03/08 01:05:58;;;;;;;10.43;3.90;;;15.30;84.10;;;;;;2013823;28;20188;-74
2022/03/08 01:06:57;;;;;;;7.63;4.33;;;15.30;84.40;;;;;;2013880;28;20187;-74
2022/03/08 01:07:56;;;;;;;6.47;4.50;;;15.30;83.30;;;;;;2013798;28;20183;-74
2022/03/08 01:08:55;;;;;;;7.75;4.30;;;15.20;83.40;;;;;;2013798;28;20196;-74
2022/03/08 01:09:53;;;;;;;8.27;4.03;;;15.30;84.10;;;;;;2013887;28;20222;-74
2022/03/08 01:10:52;;;;;;;7.77;4.87;;;15.30;84.10;;;;;;2013845;28;20168;-74
2022/03/08 01:11:51;;;;;;;10.33;4.10;;;15.30;84.90;;;;;;2013937;28;20234;-74
2022/03/08 01:12:51;;;;;;;7.80;4.83;;;15.30;85.70;;;;;;2013621;28;20480;-74
2022/03/08 01:13:49;;;;;;;6.28;3.60;;;15.20;86.10;;;;;;2013786;28;20173;-73
2022/03/08 01:14:48;;;;;;;7.20;3.93;;;15.30;86.80;;;;;;2013000;28;20180;-74
2022/03/08 01:15:47;;;;;;;6.23;4.20;;;15.20;87.20;;;;;;2013136;28;20179;-74
2022/03/08 01:16:45;;;;;;;8.40;4.63;;;15.20;86.80;;;;;;2013741;28;20169;-74
2022/03/08 01:17:44;;;;;;;10.27;4.23;;;15.20;85.80;;;;;;2013782;28;20165;-75
2022/03/08 01:18:43;;;;;;;6.40;4.20;;;15.30;85.80;;;;;;2013869;28;20259;-74
2022/03/08 01:19:42;;;;;;;6.82;4.40;;;15.20;85.80;;;;;;2013827;28;20884;-75
2022/03/08 01:20:41;;;;;;;8.97;4.00;;;15.20;86.10;;;;;;2013793;28;20246;-74
2022/03/08 01:21:39;;;;;;;7.23;4.10;;;15.30;84.20;;;;;;2013910;28;20258;-74
2022/03/08 01:22:39;;;;;;;8.17;4.63;;;15.20;83.90;;;;;;2013681;28;20199;-76
2022/03/08 01:23:37;;;;;;;6.20;4.00;;;15.20;84.40;;;;;;2013768;28;20259;-75
2022/03/08 01:24:36;;;;;;;7.43;4.50;;;15.20;83.70;;;;;;2013085;28;20188;-75
2022/03/08 01:25:36;;;;;;;7.20;4.03;;;15.20;84.10;;;;;;2013269;28;20165;-75
2022/03/08 01:26:35;;;;;;;5.85;3.92;;;15.30;84.40;;;;;;2020872;28;20172;-75
2022/03/08 01:27:34;;;;;;;5.67;3.93;;;15.20;84.70;;;;;;2021006;28;20196;-75
2022/03/08 01:28:32;;;;;;;7.00;4.20;;;15.20;85.40;;;;;;2012940;28;20207;-74
2022/03/08 01:29:31;;;;;;;5.73;3.80;;;15.20;86.50;;;;;;2013138;28;20206;-75
2022/03/08 01:30:29;;;;;;;7.90;3.87;;;15.20;86.30;;;;;;2013571;28;20168;-74
2022/03/08 01:31:28;;;;;;;7.90;4.07;;;15.20;88.20;;;;;;2013695;28;20168;-74
2022/03/08 01:32:27;;;;;;;5.47;3.93;;;15.30;85.90;;;;;;2013631;28;20169;-74
2022/03/08 01:33:25;;;;;;;9.20;5.00;;;15.20;85.60;;;;;;2013642;28;20174;-74
2022/03/08 01:34:24;;;;;;;5.03;3.63;;;15.30;85.50;;;;;;2013642;28;20180;-75
2022/03/08 01:35:22;;;;;;;7.63;4.30;;;15.20;84.90;;;;;;2013655;28;20597;-74
2022/03/08 01:36:22;;;;;;;6.30;3.90;;;15.20;83.90;;;;;;2013666;28;20169;-74
2022/03/08 01:37:21;;;;;;;7.38;4.30;;;15.20;83.60;;;;;;2013627;28;20199;-74
2022/03/08 01:38:19;;;;;;;8.17;4.60;;;15.20;82.10;;;;;;2013104;28;20495;-74
2022/03/08 01:39:18;;;;;;;7.87;3.90;;;15.20;82.30;;;;;;2012904;28;20308;-73
2022/03/08 01:40:17;;;;;;;7.07;4.27;;;15.20;82.70;;;;;;2013583;28;20223;-74
2022/03/08 01:41:16;;;;;;;7.18;3.75;;;15.20;83.50;;;;;;2013701;28;20172;-75
2022/03/08 01:42:17;;;;;;;7.80;4.30;;;15.20;83.50;;;;;;2013757;28;20184;-74
2022/03/08 01:43:15;;;;;;;7.32;4.15;;;15.20;83.90;;;;;;2013457;28;20220;-73
2022/03/08 01:44:14;;;;;;;7.90;4.20;;;15.20;83.50;;;;;;2013645;28;20203;-74
2022/03/08 01:45:15;;;;;;;6.57;3.50;;;15.20;83.40;;;;;;2013663;28;20173;-74
2022/03/08 01:46:15;;;;;;;7.80;4.55;;;15.20;83.80;;;;;;2013588;28;20164;-75
2022/03/08 01:47:15;;;;;;;5.88;3.80;;;15.20;83.50;;;;;;2013538;28;20185;-75
2022/03/08 01:48:14;;;;;;;6.65;4.05;;;15.30;83.70;;;;;;2013588;28;20204;-75
2022/03/08 01:49:13;;;;;;;5.87;3.90;;;15.20;83.80;;;;;;2013631;28;20183;-73
2022/03/08 01:50:13;;;;;;;8.95;5.00;;;15.30;84.40;;;;;;2013560;28;20184;-75
2022/03/08 01:51:13;;;;;;;6.18;4.38;;;15.30;84.90;;;;;;2012772;28;20208;-73
2022/03/08 01:52:12;;;;;;;7.90;4.10;;;15.30;85.00;;;;;;2012847;28;20208;-74
2022/03/08 01:53:11;;;;;;;6.50;4.03;;;15.20;84.70;;;;;;2013619;28;20193;-73
2022/03/08 01:54:09;;;;;;;5.53;3.90;;;15.20;85.30;;;;;;2013550;28;20208;-73
2022/03/08 01:55:10;;;;;;;7.60;4.10;;;15.20;85.30;;;;;;2013455;28;20619;-73
2022/03/08 01:56:09;;;;;;;5.82;3.80;;;15.20;85.90;;;;;;2013524;28;20183;-73
2022/03/08 01:57:08;;;;;;;7.13;4.50;;;15.30;84.70;;;;;;2013534;28;20180;-73
2022/03/08 01:58:08;;;;;;;6.47;4.78;;;15.20;84.80;;;;;;2012951;28;20589;-74
2022/03/08 01:59:07;;;;;;;8.02;4.35;;;15.20;85.60;;;;;;2004922;28;20184;-74
2022/03/08 02:00:10;;;;;;;10.10;4.40;;;15.20;84.80;;;;;;2012577;28;20164;-74
2022/03/08 02:01:08;;;;;;;5.93;4.65;;;15.20;85.10;;;;;;2013613;28;20617;-75
2022/03/08 02:02:08;;;;;;;8.00;4.40;;;15.20;85.10;;;;;;2013555;28;20345;-75
2022/03/08 02:03:07;;;;;;;7.60;4.43;;;15.20;85.40;;;;;;2012574;28;20205;-75
2022/03/08 02:04:05;;;;;;;5.90;3.53;;;15.20;85.70;;;;;;2012808;28;20168;-75
2022/03/08 02:05:05;;;;;;;5.10;3.50;;;15.20;87.00;;;;;;2013165;28;20340;-73
2022/03/08 02:06:03;;;;;;;6.32;3.88;;;15.20;86.40;;;;;;2013314;28;20178;-74
2022/03/08 02:07:04;;;;;;;9.30;4.67;;;15.20;85.70;;;;;;2013559;28;20187;-74
2022/03/08 02:08:03;;;;;;;6.28;3.80;;;15.20;87.20;;;;;;2012794;28;20227;-75
2022/03/08 02:09:02;;;;;;;7.60;4.13;;;15.20;85.90;;;;;;2012696;28;20253;-75
2022/03/08 02:10:00;;;;;;;6.17;4.10;;;15.20;85.70;;;;;;2013379;28;20176;-73
2022/03/08 02:10:59;;;;;;;5.93;4.30;;;15.20;85.90;;;;;;2013406;28;20179;-74
2022/03/08 02:11:57;;;;;;;6.77;4.30;;;15.20;85.80;;;;;;2013398;28;20203;-75
2022/03/08 02:12:56;;;;;;;4.97;3.60;;;15.20;85.70;;;;;;2013333;28;20250;-75
2022/03/08 02:13:55;;;;;;;6.40;4.23;;;15.10;85.60;;;;;;2013425;28;20226;-74
2022/03/08 02:14:54;;;;;;;7.10;4.20;;;15.10;86.10;;;;;;2012820;28;20180;-74
2022/03/08 02:15:53;;;;;;;7.47;4.47;;;15.20;84.30;;;;;;2012580;28;20645;-73
2022/03/08 02:16:51;;;;;;;5.78;3.70;;;15.20;84.20;;;;;;2013302;28;20173;-75
2022/03/08 02:17:50;;;;;;;5.40;4.07;;;15.20;84.50;;;;;;2013382;28;20176;-75
2022/03/08 02:18:49;;;;;;;6.00;3.80;;;15.20;84.80;;;;;;2013402;28;20199;-76
2022/03/08 02:19:47;;;;;;;6.33;4.17;;;15.20;84.30;;;;;;2013363;28;20206;-74
2022/03/08 02:20:46;;;;;;;7.37;4.60;;;15.20;83.80;;;;;;2013325;28;20176;-73
2022/03/08 02:21:44;;;;;;;8.50;4.33;;;15.20;84.00;;;;;;2013492;28;20185;-74
2022/03/08 02:22:44;;;;;;;5.70;4.27;;;15.20;84.50;;;;;;2013224;28;20517;-74
2022/03/08 02:23:43;;;;;;;5.10;3.72;;;15.20;84.70;;;;;;2013276;28;20203;-73
2022/03/08 02:24:41;;;;;;;7.03;4.00;;;15.20;84.40;;;;;;2013372;28;20542;-74
2022/03/08 02:25:40;;;;;;;6.30;4.40;;;15.10;84.30;;;;;;2013389;28;20180;-73
2022/03/08 02:26:39;;;;;;;5.50;4.40;;;15.20;84.90;;;;;;2013465;28;20177;-74
2022/03/08 02:27:52;;;;;;;6.43;4.10;;;15.10;85.40;;;;;;2013129;28;20176;-73
2022/03/08 02:28:51;;;;;;;5.75;3.70;;;15.20;86.80;;;;;;2013359;28;20239;-73
2022/03/08 02:29:50;;;;;;;8.20;4.33;;;15.10;86.60;;;;;;2012775;28;20176;-75
2022/03/08 02:30:49;;;;;;;7.80;4.63;;;15.20;88.50;;;;;;2012558;28;20465;-74
2022/03/08 02:31:47;;;;;;;4.30;3.40;;;15.10;88.90;;;;;;2013300;28;20217;-74
2022/03/08 02:32:47;;;;;;;7.83;3.83;;;15.20;91.00;;;;;;2013356;28;20586;-74
2022/03/08 02:33:46;;;;;;;7.50;4.05;;;15.10;89.70;;;;;;2013289;28;20175;-75
2022/03/08 02:34:44;;;;;;;6.23;4.20;;;15.20;87.40;;;;;;2013325;28;20181;-75
2022/03/08 02:35:43;;;;;;;7.33;3.90;;;15.10;85.10;;;;;;2013303;28;20173;-75
2022/03/08 02:36:59;;;;;;;4.80;3.40;;;15.10;83.90;;;;;;2013259;28;20212;-73
2022/03/08 02:38:04;;;;;;;7.10;4.15;;;15.10;84.20;;;;;;2013335;28;20206;-73
2022/03/08 02:39:03;;;;;;;7.20;4.20;;;15.10;83.00;;;;;;2012591;28;20203;-74
2022/03/08 02:40:03;;;;;;;6.45;4.13;;;15.10;82.80;;;;;;2004449;28;20227;-74
2022/03/08 02:41:01;;;;;;;7.13;3.85;;;15.20;83.40;;;;;;2012210;28;20179;-74
2022/03/08 02:42:00;;;;;;;6.23;4.30;;;15.10;83.30;;;;;;2013161;28;20172;-74
2022/03/08 02:42:59;;;;;;;9.50;3.80;;;15.10;83.30;;;;;;2012908;28;20747;-73
2022/03/08 02:43:57;;;;;;;6.90;4.20;;;15.10;83.20;;;;;;2013303;28;20522;-75
2022/03/08 02:44:56;;;;;;;6.47;3.77;;;15.10;83.50;;;;;;2013309;28;20211;-75
2022/03/08 02:45:54;;;;;;;6.37;3.97;;;15.10;83.40;;;;;;2013170;28;20180;-73
2022/03/08 02:46:53;;;;;;;5.47;3.87;;;15.10;83.40;;;;;;2012462;28;20200;-74
2022/03/08 02:47:52;;;;;;;6.77;4.03;;;15.10;84.00;;;;;;2012567;28;20199;-74
2022/03/08 02:48:51;;;;;;;6.87;4.03;;;15.20;83.90;;;;;;2013059;28;20470;-74
2022/03/08 02:49:49;;;;;;;6.70;4.60;;;15.10;83.70;;;;;;2013252;28;20168;-74
2022/03/08 02:50:48;;;;;;;8.70;4.67;;;15.10;83.90;;;;;;2013295;28;20200;-74
2022/03/08 02:51:46;;;;;;;7.23;3.60;;;15.10;84.70;;;;;;2013110;28;20168;-74
2022/03/08 02:52:48;;;;;;;6.57;3.57;;;15.10;85.00;;;;;;2012304;28;20192;-73
2022/03/08 02:53:46;;;;;;;6.53;4.10;;;15.10;85.10;;;;;;2012584;28;20191;-73
2022/03/08 02:54:45;;;;;;;7.00;4.10;;;15.10;86.70;;;;;;2020283;28;20218;-74
2022/03/08 02:55:44;;;;;;;7.97;3.97;;;15.10;86.10;;;;;;2020460;28;20176;-74
2022/03/08 02:56:42;;;;;;;6.40;3.80;;;15.10;85.80;;;;;;2012480;28;20176;-73
2022/03/08 02:57:42;;;;;;;5.87;4.23;;;15.10;88.20;;;;;;2012605;28;20272;-74
2022/03/08 02:58:40;;;;;;;4.68;3.60;;;15.10;85.50;;;;;;2020099;28;20322;-74
2022/03/08 02:59:39;;;;;;;4.07;3.23;;;15.10;85.90;;;;;;2020557;28;20658;-73
2022/03/08 03:00:37;;;;;;;3.40;2.90;;;15.10;85.70;;;;;;2013581;28;20762;-74
2022/03/08 03:01:36;;;;;;;4.60;4.10;;;15.10;86.40;;;;;;2012747;28;20176;-74
2022/03/08 03:02:35;;;;;;;6.30;4.00;;;15.10;88.60;;;;;;2012924;28;20535;-75
2022/03/08 03:03:33;;;;;;;4.97;3.20;;;15.10;89.40;;;;;;2013106;28;20192;-74
2022/03/08 03:04:32;;;;;;;7.83;4.60;;;15.20;87.00;;;;;;2012850;28;20169;-74
2022/03/08 03:05:30;;;;;;;4.63;3.63;;;15.10;88.20;;;;;;2012287;28;20173;-75
2022/03/08 03:06:29;;;;;;;5.70;3.23;;;15.10;88.80;;;;;;2012380;28;20274;-75
2022/03/08 03:07:28;;;;;;;5.80;3.43;;;15.10;90.60;;;;;;2013037;28;20176;-75
2022/03/08 03:08:27;;;;;;;5.20;3.53;;;15.20;87.70;;;;;;2012932;28;20407;-75
2022/03/08 03:09:26;;;;;;;7.43;4.45;;;15.10;88.70;;;;;;2012241;28;20181;-75
2022/03/08 03:10:24;;;;;;;5.40;3.77;;;15.00;87.60;;;;;;2012316;28;20660;-75
2022/03/08 03:11:23;;;;;;;4.93;3.57;;;15.10;90.60;;;;;;2012926;28;20247;-75
2022/03/08 03:12:21;;;;;;;5.70;3.67;;;15.00;89.60;;;;;;2012966;28;20165;-75
2022/03/08 03:13:20;;;;;;;5.37;3.63;;;15.10;89.70;;;;;;2012988;28;20242;-75
2022/03/08 03:14:18;;;;;;;5.10;3.80;;;15.10;91.50;;;;;;2012966;28;20195;-75
2022/03/08 03:15:18;;;;;;;4.20;3.30;;;15.00;90.40;;;;;;2012398;28;20191;-75
2022/03/08 03:16:17;;;;;;;6.22;4.10;;;15.00;90.10;;;;;;2011436;28;20200;-74
2022/03/08 03:17:17;;;;;;;5.80;4.20;;;15.00;87.00;;;;;;2012782;28;20184;-74
2022/03/08 03:18:15;;;;;;;6.10;3.65;;;15.10;87.70;;;;;;2012284;28;20225;-75
2022/03/08 03:19:14;;;;;;;7.10;4.03;;;15.10;87.20;;;;;;2012392;28;20172;-74
2022/03/08 03:20:18;;;;;;;6.20;3.93;;;15.10;85.90;;;;;;2012947;28;20528;-74
2022/03/08 03:21:16;;;;;;;5.10;3.25;;;15.10;86.60;;;;;;2012937;28;20149;-75
2022/03/08 03:22:15;;;;;;;6.70;3.50;;;15.10;85.90;;;;;;2012899;28;20211;-74
2022/03/08 03:23:14;;;;;;;4.50;3.50;;;15.00;84.90;;;;;;2012932;28;20195;-75
2022/03/08 03:24:12;;;;;;;6.23;4.03;;;15.10;84.00;;;;;;2012927;28;20177;-73
2022/03/08 03:25:12;;;;;;;5.20;3.40;;;15.10;82.70;;;;;;2012937;28;20250;-73
2022/03/08 03:26:11;;;;;;;7.55;4.22;;;15.00;81.80;;;;;;2012832;28;20230;-73
2022/03/08 03:27:09;;;;;;;7.10;3.37;;;15.10;81.30;;;;;;2012102;28;20218;-74
2022/03/08 03:28:08;;;;;;;6.30;3.67;;;15.00;80.80;;;;;;2011989;28;20173;-74
2022/03/08 03:29:07;;;;;;;5.60;3.57;;;15.00;80.70;;;;;;2012773;28;20711;-75
2022/03/08 03:30:08;;;;;;;5.20;3.67;;;15.10;80.70;;;;;;2012793;28;20543;-72
2022/03/08 03:31:07;;;;;;;4.97;3.67;;;15.10;81.00;;;;;;2012854;28;20212;-72
2022/03/08 03:32:05;;;;;;;6.70;3.80;;;15.00;80.30;;;;;;2012801;28;20628;-73
2022/03/08 03:33:04;;;;;;;5.67;2.93;;;15.10;80.60;;;;;;2012692;28;20246;-73
2022/03/08 03:34:03;;;;;;;4.70;3.47;;;15.10;80.20;;;;;;2012131;28;20451;-73
2022/03/08 03:35:02;;;;;;;4.53;3.00;;;15.10;80.00;;;;;;2004293;28;20176;-72
2022/03/08 03:36:00;;;;;;;6.40;3.70;;;15.10;80.00;;;;;;2011742;28;20767;-73
2022/03/08 03:36:59;;;;;;;5.57;3.80;;;15.10;79.80;;;;;;2019609;28;20871;-74
2022/03/08 03:37:57;;;;;;;5.67;4.03;;;15.00;79.60;;;;;;2013319;28;20319;-73
2022/03/08 03:38:56;;;;;;;5.40;3.80;;;15.00;79.60;;;;;;2012381;28;20185;-73
2022/03/08 03:39:54;;;;;;;5.23;3.40;;;15.10;79.70;;;;;;2004462;28;20546;-73
2022/03/08 03:40:53;;;;;;;8.53;3.87;;;15.10;79.60;;;;;;2011914;28;20264;-73
2022/03/08 03:41:51;;;;;;;4.60;3.70;;;15.00;79.30;;;;;;2015797;28;20180;-74
2022/03/08 03:42:50;;;;;;;5.33;3.57;;;15.10;79.40;;;;;;2016425;28;20279;-74
2022/03/08 03:43:48;;;;;;;6.90;3.77;;;15.10;79.40;;;;;;2016107;28;20207;-74
2022/03/08 03:44:47;;;;;;;6.37;4.10;;;15.10;79.40;;;;;;2016404;28;20184;-74
2022/03/08 03:45:46;;;;;;;5.13;3.37;;;15.00;79.30;;;;;;2015081;28;20200;-73
2022/03/08 03:46:44;;;;;;;7.60;3.47;;;15.00;79.30;;;;;;2014493;28;20565;-74
2022/03/08 03:47:43;;;;;;;7.07;3.63;;;15.00;79.10;;;;;;2015888;28;20643;-73
2022/03/08 03:48:41;;;;;;;6.17;3.77;;;15.00;79.10;;;;;;2016168;28;20216;-74
2022/03/08 03:49:40;;;;;;;6.27;3.73;;;15.00;79.30;;;;;;2012792;28;20510;-74
2022/03/08 03:50:38;;;;;;;6.40;3.60;;;15.00;79.00;;;;;;2012683;28;20254;-74
2022/03/08 03:51:37;;;;;;;7.80;3.87;;;15.00;79.10;;;;;;2012696;28;20422;-75
2022/03/08 03:52:35;;;;;;;6.03;4.00;;;15.00;79.00;;;;;;2012537;28;20169;-74
2022/03/08 03:53:34;;;;;;;5.07;3.47;;;15.00;79.20;;;;;;2012579;28;20180;-73
2022/03/08 03:54:32;;;;;;;5.33;3.80;;;15.10;79.20;;;;;;2012599;28;20255;-74
2022/03/08 03:55:31;;;;;;;4.67;3.13;;;15.00;79.30;;;;;;2012635;28;20160;-73
2022/03/08 03:56:29;;;;;;;4.47;3.30;;;15.00;79.30;;;;;;2012636;28;20172;-74
2022/03/08 03:57:28;;;;;;;5.97;3.83;;;15.00;79.10;;;;;;2012648;28;20203;-75
2022/03/08 03:58:27;;;;;;;4.40;3.10;;;15.00;79.10;;;;;;2012688;28;20176;-74
2022/03/08 03:59:25;;;;;;;5.77;3.77;;;15.10;79.20;;;;;;2012702;28;20652;-75
2022/03/08 04:00:24;;;;;;;5.50;3.53;;;15.00;79.00;;;;;;2012805;28;20482;-75
2022/03/08 04:01:23;;;;;;;5.90;3.60;;;15.00;79.00;;;;;;2012560;28;20179;-75
2022/03/08 04:02:21;;;;;;;5.90;3.83;;;15.00;79.00;;;;;;2012561;28;20173;-73
2022/03/08 04:03:20;;;;;;;5.90;3.50;;;15.00;79.00;;;;;;2012525;28;20185;-74
2022/03/08 04:04:18;;;;;;;6.30;3.70;;;15.00;78.80;;;;;;2012807;28;20192;-73
2022/03/08 04:05:17;;;;;;;4.80;3.20;;;15.00;78.90;;;;;;2012393;28;20565;-74
2022/03/08 04:06:15;;;;;;;5.77;3.50;;;15.00;78.70;;;;;;2012650;28;20168;-73
2022/03/08 04:07:14;;;;;;;6.10;3.27;;;15.00;78.70;;;;;;2012658;28;20223;-73
2022/03/08 04:08:12;;;;;;;6.30;3.50;;;15.00;78.40;;;;;;2012496;28;20630;-73
2022/03/08 04:09:13;;;;;;;5.43;3.43;;;15.00;78.30;;;;;;2012542;28;20255;-73
2022/03/08 04:10:12;;;;;;;5.82;3.47;;;15.00;78.30;;;;;;2011876;28;20173;-73
2022/03/08 04:11:11;;;;;;;6.15;3.53;;;15.00;78.50;;;;;;2011983;28;20180;-73
2022/03/08 04:12:09;;;;;;;6.43;3.73;;;15.00;78.50;;;;;;2012505;28;20165;-73
2022/03/08 04:13:08;;;;;;;5.20;3.50;;;15.00;78.50;;;;;;2012504;28;20249;-74
2022/03/08 04:14:06;;;;;;;5.60;3.83;;;15.00;78.50;;;;;;2012605;28;20628;-74
2022/03/08 04:15:05;;;;;;;3.87;3.30;;;15.00;78.50;;;;;;2012597;28;20591;-73
2022/03/08 04:16:04;;;;;;;4.47;3.27;;;15.00;78.50;;;;;;2012120;28;20176;-73
2022/03/08 04:17:04;;;;;;;4.68;3.42;;;15.00;78.60;;;;;;2003690;28;20474;-73
2022/03/08 04:18:02;;;;;;;5.93;3.78;;;15.00;78.60;;;;;;2011657;28;20234;-73
2022/03/08 04:19:01;;;;;;;5.33;3.70;;;15.00;78.20;;;;;;2012412;28;20184;-73
2022/03/08 04:19:59;;;;;;;6.73;4.27;;;15.00;78.40;;;;;;2012455;28;20570;-73
2022/03/08 04:20:58;;;;;;;4.27;3.40;;;15.00;78.30;;;;;;2012371;28;20245;-73
2022/03/08 04:21:57;;;;;;;6.83;3.90;;;15.00;78.40;;;;;;2012474;28;20176;-74
2022/03/08 04:22:55;;;;;;;6.40;3.90;;;15.00;78.40;;;;;;2012315;28;20196;-73
2022/03/08 04:23:54;;;;;;;5.50;3.50;;;15.00;78.40;;;;;;2012539;28;20490;-73
2022/03/08 04:24:53;;;;;;;6.67;4.17;;;15.00;78.40;;;;;;2011755;28;20177;-73
2022/03/08 04:25:52;;;;;;;4.68;3.33;;;15.00;78.60;;;;;;2011931;28;20169;-73
2022/03/08 04:26:50;;;;;;;6.30;3.83;;;15.00;78.50;;;;;;2012380;28;20272;-73
2022/03/08 04:27:50;;;;;;;6.00;3.40;;;15.00;78.60;;;;;;2012427;28;20184;-74
2022/03/08 04:28:49;;;;;;;4.65;3.20;;;15.00;78.70;;;;;;2012241;28;20200;-73
2022/03/08 04:29:47;;;;;;;5.80;3.67;;;15.00;78.50;;;;;;2012338;28;20180;-73
2022/03/08 04:30:46;;;;;;;8.70;4.00;;;15.00;78.60;;;;;;2012434;28;20195;-73
2022/03/08 04:31:45;;;;;;;4.53;3.30;;;14.90;78.60;;;;;;2012467;28;20537;-74
2022/03/08 04:32:43;;;;;;;4.80;3.17;;;15.00;78.80;;;;;;2012563;28;20207;-74
2022/03/08 04:33:43;;;;;;;4.93;3.07;;;14.90;78.80;;;;;;2012428;28;20255;-75
2022/03/08 04:34:41;;;;;;;4.50;3.00;;;15.00;79.90;;;;;;2012400;28;20168;-75
2022/03/08 04:35:40;;;;;;;6.40;3.83;;;15.00;79.10;;;;;;2011819;28;20183;-72
2022/03/08 04:36:39;;;;;;;4.07;3.00;;;14.90;79.20;;;;;;2011800;28;20180;-73
2022/03/08 04:37:38;;;;;;;6.67;2.97;;;15.00;79.60;;;;;;2012442;28;20187;-73
2022/03/08 04:38:36;;;;;;;7.07;4.10;;;14.90;79.50;;;;;;2012356;28;20231;-73
2022/03/08 04:39:35;;;;;;;5.40;3.13;;;14.90;79.40;;;;;;2011768;28;20411;-75
2022/03/08 04:40:33;;;;;;;7.10;4.57;;;14.90;79.60;;;;;;2011891;28;20172;-73
2022/03/08 04:41:32;;;;;;;6.20;3.47;;;14.90;79.70;;;;;;2011041;28;20195;-74
2022/03/08 04:42:31;;;;;;;6.47;3.47;;;14.90;79.70;;;;;;2011692;28;20195;-73
2022/03/08 04:43:29;;;;;;;5.50;3.40;;;14.90;79.80;;;;;;2012316;28;20267;-74
2022/03/08 04:44:29;;;;;;;6.10;3.40;;;14.90;79.90;;;;;;2011800;28;20693;-74
2022/03/08 04:45:27;;;;;;;5.90;3.60;;;14.90;80.00;;;;;;2011762;28;20271;-75
2022/03/08 04:46:26;;;;;;;5.57;3.67;;;14.90;80.70;;;;;;2012244;28;20248;-74
2022/03/08 04:47:25;;;;;;;6.20;3.93;;;15.00;80.30;;;;;;2012418;28;20172;-74
2022/03/08 04:48:23;;;;;;;5.37;3.20;;;14.80;80.50;;;;;;2012501;28;20175;-73
2022/03/08 04:49:22;;;;;;;6.03;3.40;;;14.90;80.50;;;;;;2012534;28;20169;-74
2022/03/08 04:50:21;;;;;;;4.40;3.13;;;14.90;80.90;;;;;;2011764;28;20180;-74
2022/03/08 04:51:20;;;;;;;5.20;3.30;;;14.90;81.00;;;;;;2011971;28;20602;-74
2022/03/08 04:52:18;;;;;;;6.73;3.70;;;14.80;80.80;;;;;;2012455;28;20169;-73
2022/03/08 04:53:17;;;;;;;5.43;3.50;;;14.90;81.20;;;;;;2012046;28;20279;-74
2022/03/08 04:54:15;;;;;;;6.27;3.60;;;14.90;81.50;;;;;;2012334;28;20168;-74
2022/03/08 04:55:16;;;;;;;6.67;3.70;;;14.90;81.60;;;;;;2011635;28;20207;-73
2022/03/08 04:56:16;;;;;;;5.80;4.47;;;14.90;82.00;;;;;;2011729;28;20173;-73
2022/03/08 04:57:14;;;;;;;6.20;4.05;;;14.90;82.10;;;;;;2012384;28;20304;-73
2022/03/08 04:58:13;;;;;;;7.23;4.37;;;14.90;82.80;;;;;;2012263;28;20220;-73
2022/03/08 04:59:11;;;;;;;4.00;3.20;;;14.90;83.20;;;;;;2012340;28;20204;-73
2022/03/08 05:00:12;;;;;;;6.27;3.73;;;14.90;82.60;;;;;;2012346;28;20321;-74
2022/03/08 05:01:11;;;;;;;6.97;4.15;;;14.90;83.30;;;;;;2012155;28;20172;-73
2022/03/08 05:02:09;;;;;;;6.77;3.70;;;14.90;84.50;;;;;;2012309;28;20259;-74
2022/03/08 05:03:08;;;;;;;5.57;4.03;;;14.90;84.30;;;;;;2012259;28;20188;-73
2022/03/08 05:04:08;;;;;;;5.70;3.67;;;14.90;83.90;;;;;;2012225;28;20196;-73
2022/03/08 05:05:08;;;;;;;4.15;3.47;;;14.80;84.40;;;;;;2012199;28;20482;-76
2022/03/08 05:06:07;;;;;;;4.82;3.15;;;14.90;85.50;;;;;;2012221;28;20173;-73
2022/03/08 05:07:06;;;;;;;6.13;3.60;;;14.90;85.60;;;;;;2012319;28;20175;-74